Ulysses, Pennsylvania
Current Conditions -  °F | °C
As of 10:56 AM on Sunday 21 Dec 2014 (Local Time) from KELZ Reporting Station
Overcast Overcast  
Wind Chill: 19°   Ceiling: 800
Heat Index: 26°   Visibility: 10mi
Dew Point: 22°   Wind: 6mph
Humidity: 84%   Direction: 290°WNW
Pressure: 30.25"   Gusts: NA
Location:  41.9°N, 77.76°W
Report Text: KELZ 211556Z AUTO 29005KT 10SM OVC008 M03/M06 A3025 RMK AO2 SLP275 T10331056
Loading
Personal Weather Stations






























Interactive Weather Map New forecast layout! Learn more

10-Day Weather Forecast

Advertisements
Track Severe Weather on mobile